sensor_id;sensor_type;location;lat;lon;timestamp;P1;durP1;ratioP1;P2;durP2;ratioP2
41693;SDS011;27377;50.666;9.150;2023-06-14T00:02:12;6.93;;;4.47;;
41693;SDS011;27377;50.666;9.150;2023-06-14T00:04:37;7.50;;;4.57;;
41693;SDS011;27377;50.666;9.150;2023-06-14T00:07:04;5.88;;;4.50;;
41693;SDS011;27377;50.666;9.150;2023-06-14T00:09:33;8.13;;;4.68;;
41693;SDS011;27377;50.666;9.150;2023-06-14T00:11:59;6.57;;;4.70;;
41693;SDS011;27377;50.666;9.150;2023-06-14T00:14:25;6.53;;;4.70;;
41693;SDS011;27377;50.666;9.150;2023-06-14T00:16:50;5.93;;;4.50;;
41693;SDS011;27377;50.666;9.150;2023-06-14T00:19:17;7.25;;;4.57;;
41693;SDS011;27377;50.666;9.150;2023-06-14T00:21:45;7.68;;;4.65;;
41693;SDS011;27377;50.666;9.150;2023-06-14T00:24:11;7.65;;;4.80;;
41693;SDS011;27377;50.666;9.150;2023-06-14T00:26:36;6.63;;;4.78;;
41693;SDS011;27377;50.666;9.150;2023-06-14T00:29:02;6.22;;;4.35;;
41693;SDS011;27377;50.666;9.150;2023-06-14T00:31:27;6.97;;;4.40;;
41693;SDS011;27377;50.666;9.150;2023-06-14T00:33:53;6.25;;;4.25;;
41693;SDS011;27377;50.666;9.150;2023-06-14T00:36:19;7.38;;;4.28;;
41693;SDS011;27377;50.666;9.150;2023-06-14T00:38:44;9.10;;;4.15;;
41693;SDS011;27377;50.666;9.150;2023-06-14T00:41:10;7.32;;;4.60;;
41693;SDS011;27377;50.666;9.150;2023-06-14T00:43:35;6.65;;;4.30;;
41693;SDS011;27377;50.666;9.150;2023-06-14T00:46:01;6.38;;;4.35;;
41693;SDS011;27377;50.666;9.150;2023-06-14T00:48:27;8.07;;;4.50;;
41693;SDS011;27377;50.666;9.150;2023-06-14T00:50:53;6.18;;;4.13;;
41693;SDS011;27377;50.666;9.150;2023-06-14T00:53:20;6.47;;;4.30;;
41693;SDS011;27377;50.666;9.150;2023-06-14T00:55:47;7.95;;;4.32;;
41693;SDS011;27377;50.666;9.150;2023-06-14T00:58:13;6.80;;;4.00;;
41693;SDS011;27377;50.666;9.150;2023-06-14T01:00:39;6.82;;;4.20;;
41693;SDS011;27377;50.666;9.150;2023-06-14T01:03:05;9.80;;;4.60;;
41693;SDS011;27377;50.666;9.150;2023-06-14T01:05:31;7.57;;;4.38;;
41693;SDS011;27377;50.666;9.150;2023-06-14T01:13:40;7.00;;;4.00;;
41693;SDS011;27377;50.666;9.150;2023-06-14T01:16:10;6.87;;;4.23;;
41693;SDS011;27377;50.666;9.150;2023-06-14T01:18:36;6.00;;;4.30;;
41693;SDS011;27377;50.666;9.150;2023-06-14T01:21:02;8.68;;;4.40;;
41693;SDS011;27377;50.666;9.150;2023-06-14T01:23:30;7.10;;;4.38;;
41693;SDS011;27377;50.666;9.150;2023-06-14T01:26:00;7.53;;;4.20;;
41693;SDS011;27377;50.666;9.150;2023-06-14T01:28:28;6.00;;;4.30;;
41693;SDS011;27377;50.666;9.150;2023-06-14T01:30:57;6.20;;;4.27;;
41693;SDS011;27377;50.666;9.150;2023-06-14T01:33:28;6.10;;;3.92;;
41693;SDS011;27377;50.666;9.150;2023-06-14T01:35:54;6.15;;;4.10;;
41693;SDS011;27377;50.666;9.150;2023-06-14T01:38:24;7.18;;;4.32;;
41693;SDS011;27377;50.666;9.150;2023-06-14T01:40:51;8.23;;;4.40;;
41693;SDS011;27377;50.666;9.150;2023-06-14T01:43:19;7.60;;;5.00;;
41693;SDS011;27377;50.666;9.150;2023-06-14T01:45:46;6.60;;;4.40;;
41693;SDS011;27377;50.666;9.150;2023-06-14T01:48:13;8.80;;;4.32;;
41693;SDS011;27377;50.666;9.150;2023-06-14T01:50:40;6.30;;;4.50;;
41693;SDS011;27377;50.666;9.150;2023-06-14T01:53:07;12.23;;;4.50;;
41693;SDS011;27377;50.666;9.150;2023-06-14T01:55:33;6.10;;;4.18;;
41693;SDS011;27377;50.666;9.150;2023-06-14T01:58:05;7.03;;;4.27;;
41693;SDS011;27377;50.666;9.150;2023-06-14T02:00:30;8.30;;;4.40;;
41693;SDS011;27377;50.666;9.150;2023-06-14T02:02:56;6.50;;;4.20;;
41693;SDS011;27377;50.666;9.150;2023-06-14T02:05:22;7.40;;;4.10;;
41693;SDS011;27377;50.666;9.150;2023-06-14T02:07:47;7.17;;;4.10;;
41693;SDS011;27377;50.666;9.150;2023-06-14T02:10:13;6.13;;;3.80;;
41693;SDS011;27377;50.666;9.150;2023-06-14T02:12:40;7.93;;;4.28;;
41693;SDS011;27377;50.666;9.150;2023-06-14T02:15:06;6.13;;;3.97;;
41693;SDS011;27377;50.666;9.150;2023-06-14T02:17:32;6.30;;;4.00;;
41693;SDS011;27377;50.666;9.150;2023-06-14T02:19:58;7.57;;;4.27;;
41693;SDS011;27377;50.666;9.150;2023-06-14T02:22:23;6.27;;;4.00;;
41693;SDS011;27377;50.666;9.150;2023-06-14T02:24:49;5.97;;;3.70;;
41693;SDS011;27377;50.666;9.150;2023-06-14T02:27:15;6.25;;;3.95;;
41693;SDS011;27377;50.666;9.150;2023-06-14T02:29:40;9.25;;;4.25;;
41693;SDS011;27377;50.666;9.150;2023-06-14T02:32:06;6.55;;;4.25;;
41693;SDS011;27377;50.666;9.150;2023-06-14T02:34:32;7.30;;;4.40;;
41693;SDS011;27377;50.666;9.150;2023-06-14T02:36:59;6.47;;;4.23;;
41693;SDS011;27377;50.666;9.150;2023-06-14T02:39:25;6.03;;;3.90;;
41693;SDS011;27377;50.666;9.150;2023-06-14T02:41:51;7.47;;;4.23;;
41693;SDS011;27377;50.666;9.150;2023-06-14T02:44:23;6.57;;;4.23;;
41693;SDS011;27377;50.666;9.150;2023-06-14T02:46:50;6.93;;;3.75;;
41693;SDS011;27377;50.666;9.150;2023-06-14T02:49:16;6.55;;;3.95;;
41693;SDS011;27377;50.666;9.150;2023-06-14T02:51:41;6.53;;;4.10;;
41693;SDS011;27377;50.666;9.150;2023-06-14T02:54:07;6.07;;;3.90;;
41693;SDS011;27377;50.666;9.150;2023-06-14T02:56:32;8.33;;;3.90;;
41693;SDS011;27377;50.666;9.150;2023-06-14T02:58:58;7.30;;;3.80;;
41693;SDS011;27377;50.666;9.150;2023-06-14T03:01:25;7.43;;;3.90;;
41693;SDS011;27377;50.666;9.150;2023-06-14T03:03:59;6.75;;;4.18;;
41693;SDS011;27377;50.666;9.150;2023-06-14T03:06:27;6.60;;;3.90;;
41693;SDS011;27377;50.666;9.150;2023-06-14T03:08:55;7.05;;;3.90;;
41693;SDS011;27377;50.666;9.150;2023-06-14T03:11:24;5.65;;;3.70;;
41693;SDS011;27377;50.666;9.150;2023-06-14T03:13:51;6.10;;;4.03;;
41693;SDS011;27377;50.666;9.150;2023-06-14T03:16:17;6.38;;;3.90;;
41693;SDS011;27377;50.666;9.150;2023-06-14T03:18:48;7.57;;;3.97;;
41693;SDS011;27377;50.666;9.150;2023-06-14T03:21:14;7.38;;;4.10;;
41693;SDS011;27377;50.666;9.150;2023-06-14T03:23:41;6.47;;;3.78;;
41693;SDS011;27377;50.666;9.150;2023-06-14T03:26:07;5.25;;;3.67;;
41693;SDS011;27377;50.666;9.150;2023-06-14T03:28:33;6.00;;;3.85;;
41693;SDS011;27377;50.666;9.150;2023-06-14T03:30:58;7.80;;;3.70;;
41693;SDS011;27377;50.666;9.150;2023-06-14T03:33:24;7.53;;;3.70;;
41693;SDS011;27377;50.666;9.150;2023-06-14T03:35:50;8.15;;;4.00;;
41693;SDS011;27377;50.666;9.150;2023-06-14T03:38:16;6.57;;;4.23;;
41693;SDS011;27377;50.666;9.150;2023-06-14T03:40:42;5.73;;;3.70;;
41693;SDS011;27377;50.666;9.150;2023-06-14T03:43:09;8.77;;;4.10;;
41693;SDS011;27377;50.666;9.150;2023-06-14T03:45:35;7.00;;;3.95;;
41693;SDS011;27377;50.666;9.150;2023-06-14T03:48:01;6.40;;;3.80;;
41693;SDS011;27377;50.666;9.150;2023-06-14T03:50:27;7.07;;;3.80;;
41693;SDS011;27377;50.666;9.150;2023-06-14T03:52:53;7.50;;;3.90;;
41693;SDS011;27377;50.666;9.150;2023-06-14T03:55:19;6.78;;;3.60;;
41693;SDS011;27377;50.666;9.150;2023-06-14T03:57:45;6.50;;;3.88;;
41693;SDS011;27377;50.666;9.150;2023-06-14T04:00:10;6.37;;;3.90;;
41693;SDS011;27377;50.666;9.150;2023-06-14T04:02:37;7.77;;;3.93;;
41693;SDS011;27377;50.666;9.150;2023-06-14T04:05:03;6.63;;;3.80;;
41693;SDS011;27377;50.666;9.150;2023-06-14T04:07:33;6.43;;;3.63;;
41693;SDS011;27377;50.666;9.150;2023-06-14T04:10:04;6.32;;;3.75;;
41693;SDS011;27377;50.666;9.150;2023-06-14T04:12:31;9.63;;;3.60;;
41693;SDS011;27377;50.666;9.150;2023-06-14T04:14:57;8.03;;;3.90;;
41693;SDS011;27377;50.666;9.150;2023-06-14T04:17:22;8.87;;;4.07;;
41693;SDS011;27377;50.666;9.150;2023-06-14T04:19:48;7.23;;;4.10;;
41693;SDS011;27377;50.666;9.150;2023-06-14T04:22:13;6.93;;;3.80;;
41693;SDS011;27377;50.666;9.150;2023-06-14T04:24:39;7.60;;;3.70;;
41693;SDS011;27377;50.666;9.150;2023-06-14T04:27:07;6.13;;;3.72;;
41693;SDS011;27377;50.666;9.150;2023-06-14T04:29:33;6.60;;;3.80;;
41693;SDS011;27377;50.666;9.150;2023-06-14T04:31:58;6.20;;;3.57;;
41693;SDS011;27377;50.666;9.150;2023-06-14T04:34:28;5.43;;;3.47;;
41693;SDS011;27377;50.666;9.150;2023-06-14T04:36:59;7.40;;;3.67;;
41693;SDS011;27377;50.666;9.150;2023-06-14T04:39:26;7.25;;;3.60;;
41693;SDS011;27377;50.666;9.150;2023-06-14T04:41:52;6.88;;;3.60;;
41693;SDS011;27377;50.666;9.150;2023-06-14T04:44:22;8.57;;;3.63;;
41693;SDS011;27377;50.666;9.150;2023-06-14T04:49:42;7.30;;;3.58;;
41693;SDS011;27377;50.666;9.150;2023-06-14T04:52:22;5.57;;;3.50;;
41693;SDS011;27377;50.666;9.150;2023-06-14T04:54:52;6.05;;;3.70;;
41693;SDS011;27377;50.666;9.150;2023-06-14T04:57:19;7.45;;;3.40;;
41693;SDS011;27377;50.666;9.150;2023-06-14T04:59:49;6.50;;;3.40;;
41693;SDS011;27377;50.666;9.150;2023-06-14T05:02:19;7.80;;;3.60;;
41693;SDS011;27377;50.666;9.150;2023-06-14T05:04:50;6.17;;;3.37;;
41693;SDS011;27377;50.666;9.150;2023-06-14T05:07:17;6.57;;;3.78;;
41693;SDS011;27377;50.666;9.150;2023-06-14T05:09:42;7.60;;;3.50;;
41693;SDS011;27377;50.666;9.150;2023-06-14T05:12:09;7.40;;;3.65;;
41693;SDS011;27377;50.666;9.150;2023-06-14T05:14:35;7.03;;;3.13;;
41693;SDS011;27377;50.666;9.150;2023-06-14T05:17:01;5.57;;;3.13;;
41693;SDS011;27377;50.666;9.150;2023-06-14T05:19:27;5.93;;;3.20;;
41693;SDS011;27377;50.666;9.150;2023-06-14T05:21:53;5.50;;;3.22;;
41693;SDS011;27377;50.666;9.150;2023-06-14T05:24:19;7.90;;;3.00;;
41693;SDS011;27377;50.666;9.150;2023-06-14T05:26:46;5.57;;;3.17;;
41693;SDS011;27377;50.666;9.150;2023-06-14T05:29:11;5.50;;;2.80;;
41693;SDS011;27377;50.666;9.150;2023-06-14T05:31:37;5.63;;;2.90;;
41693;SDS011;27377;50.666;9.150;2023-06-14T05:34:03;5.63;;;2.80;;
41693;SDS011;27377;50.666;9.150;2023-06-14T05:36:29;5.65;;;2.70;;
41693;SDS011;27377;50.666;9.150;2023-06-14T05:38:55;5.40;;;2.70;;
41693;SDS011;27377;50.666;9.150;2023-06-14T05:41:24;5.88;;;2.72;;
41693;SDS011;27377;50.666;9.150;2023-06-14T05:43:56;6.93;;;2.67;;
41693;SDS011;27377;50.666;9.150;2023-06-14T05:46:23;4.82;;;2.63;;
41693;SDS011;27377;50.666;9.150;2023-06-14T05:48:52;7.75;;;3.03;;
41693;SDS011;27377;50.666;9.150;2023-06-14T05:51:19;5.32;;;2.90;;
41693;SDS011;27377;50.666;9.150;2023-06-14T05:53:50;4.47;;;2.60;;
41693;SDS011;27377;50.666;9.150;2023-06-14T05:56:19;5.85;;;2.53;;
41693;SDS011;27377;50.666;9.150;2023-06-14T05:58:45;4.80;;;2.70;;
41693;SDS011;27377;50.666;9.150;2023-06-14T06:01:12;7.13;;;3.10;;
41693;SDS011;27377;50.666;9.150;2023-06-14T06:03:38;6.45;;;3.05;;
41693;SDS011;27377;50.666;9.150;2023-06-14T06:06:05;6.72;;;2.80;;
41693;SDS011;27377;50.666;9.150;2023-06-14T06:08:31;5.00;;;2.88;;
41693;SDS011;27377;50.666;9.150;2023-06-14T06:10:58;4.40;;;2.80;;
41693;SDS011;27377;50.666;9.150;2023-06-14T06:13:23;4.75;;;2.70;;
41693;SDS011;27377;50.666;9.150;2023-06-14T06:15:49;8.35;;;3.00;;
41693;SDS011;27377;50.666;9.150;2023-06-14T06:18:14;5.55;;;2.90;;
41693;SDS011;27377;50.666;9.150;2023-06-14T06:20:40;5.82;;;2.78;;
41693;SDS011;27377;50.666;9.150;2023-06-14T06:23:06;6.27;;;3.10;;
41693;SDS011;27377;50.666;9.150;2023-06-14T06:25:32;4.65;;;2.85;;
41693;SDS011;27377;50.666;9.150;2023-06-14T06:27:58;4.70;;;2.93;;
41693;SDS011;27377;50.666;9.150;2023-06-14T06:30:24;6.93;;;3.30;;
41693;SDS011;27377;50.666;9.150;2023-06-14T06:32:50;5.60;;;2.80;;
41693;SDS011;27377;50.666;9.150;2023-06-14T06:35:16;6.78;;;3.03;;
41693;SDS011;27377;50.666;9.150;2023-06-14T06:37:41;5.43;;;2.97;;
41693;SDS011;27377;50.666;9.150;2023-06-14T06:40:07;5.63;;;3.20;;
41693;SDS011;27377;50.666;9.150;2023-06-14T06:42:33;5.03;;;3.00;;
41693;SDS011;27377;50.666;9.150;2023-06-14T06:44:59;5.30;;;3.13;;
41693;SDS011;27377;50.666;9.150;2023-06-14T06:47:25;6.53;;;3.40;;
41693;SDS011;27377;50.666;9.150;2023-06-14T06:49:51;5.27;;;3.10;;
41693;SDS011;27377;50.666;9.150;2023-06-14T06:52:16;8.13;;;2.93;;
41693;SDS011;27377;50.666;9.150;2023-06-14T06:54:42;5.80;;;2.90;;
41693;SDS011;27377;50.666;9.150;2023-06-14T06:57:08;8.07;;;2.83;;
41693;SDS011;27377;50.666;9.150;2023-06-14T06:59:33;5.00;;;2.80;;
41693;SDS011;27377;50.666;9.150;2023-06-14T07:02:00;5.88;;;2.70;;
41693;SDS011;27377;50.666;9.150;2023-06-14T07:04:26;5.07;;;2.75;;
41693;SDS011;27377;50.666;9.150;2023-06-14T07:06:52;6.63;;;2.80;;
41693;SDS011;27377;50.666;9.150;2023-06-14T07:09:17;4.43;;;2.37;;
41693;SDS011;27377;50.666;9.150;2023-06-14T07:11:44;4.57;;;2.55;;
41693;SDS011;27377;50.666;9.150;2023-06-14T07:14:10;4.47;;;2.60;;
41693;SDS011;27377;50.666;9.150;2023-06-14T07:16:36;5.77;;;2.90;;
41693;SDS011;27377;50.666;9.150;2023-06-14T07:19:02;4.57;;;2.70;;
41693;SDS011;27377;50.666;9.150;2023-06-14T07:21:28;4.28;;;2.50;;
41693;SDS011;27377;50.666;9.150;2023-06-14T07:23:54;9.10;;;5.20;;
41693;SDS011;27377;50.666;9.150;2023-06-14T07:26:20;7.30;;;4.40;;
41693;SDS011;27377;50.666;9.150;2023-06-14T07:28:46;7.93;;;4.10;;
41693;SDS011;27377;50.666;9.150;2023-06-14T07:31:12;6.00;;;3.53;;
41693;SDS011;27377;50.666;9.150;2023-06-14T07:33:39;4.43;;;2.57;;
41693;SDS011;27377;50.666;9.150;2023-06-14T07:36:05;4.20;;;2.38;;
41693;SDS011;27377;50.666;9.150;2023-06-14T07:38:30;5.97;;;2.40;;
41693;SDS011;27377;50.666;9.150;2023-06-14T07:40:56;6.60;;;2.50;;
41693;SDS011;27377;50.666;9.150;2023-06-14T07:43:21;5.47;;;2.50;;
41693;SDS011;27377;50.666;9.150;2023-06-14T07:45:47;5.70;;;2.50;;
41693;SDS011;27377;50.666;9.150;2023-06-14T07:48:13;5.40;;;2.30;;
41693;SDS011;27377;50.666;9.150;2023-06-14T07:50:38;5.25;;;2.70;;
41693;SDS011;27377;50.666;9.150;2023-06-14T07:53:04;3.88;;;2.38;;
41693;SDS011;27377;50.666;9.150;2023-06-14T07:55:29;6.32;;;2.78;;
41693;SDS011;27377;50.666;9.150;2023-06-14T07:57:57;4.70;;;2.70;;
41693;SDS011;27377;50.666;9.150;2023-06-14T08:00:23;4.78;;;2.58;;
41693;SDS011;27377;50.666;9.150;2023-06-14T08:02:49;5.00;;;2.80;;
41693;SDS011;27377;50.666;9.150;2023-06-14T08:05:17;4.60;;;2.53;;
41693;SDS011;27377;50.666;9.150;2023-06-14T08:07:42;5.03;;;2.57;;
41693;SDS011;27377;50.666;9.150;2023-06-14T08:10:08;6.23;;;2.50;;
41693;SDS011;27377;50.666;9.150;2023-06-14T08:12:34;4.83;;;2.50;;
41693;SDS011;27377;50.666;9.150;2023-06-14T08:14:59;4.43;;;2.83;;
41693;SDS011;27377;50.666;9.150;2023-06-14T08:17:25;3.88;;;2.50;;
41693;SDS011;27377;50.666;9.150;2023-06-14T08:19:51;6.80;;;2.80;;
41693;SDS011;27377;50.666;9.150;2023-06-14T08:22:22;5.13;;;2.70;;
41693;SDS011;27377;50.666;9.150;2023-06-14T08:24:49;4.95;;;2.50;;
41693;SDS011;27377;50.666;9.150;2023-06-14T08:27:15;5.75;;;2.65;;
41693;SDS011;27377;50.666;9.150;2023-06-14T08:29:40;4.70;;;2.50;;
41693;SDS011;27377;50.666;9.150;2023-06-14T08:32:06;4.00;;;2.45;;
41693;SDS011;27377;50.666;9.150;2023-06-14T08:34:32;4.40;;;2.60;;
41693;SDS011;27377;50.666;9.150;2023-06-14T08:36:57;5.63;;;2.57;;
41693;SDS011;27377;50.666;9.150;2023-06-14T08:39:23;6.00;;;2.97;;
41693;SDS011;27377;50.666;9.150;2023-06-14T08:41:49;4.65;;;2.58;;
41693;SDS011;27377;50.666;9.150;2023-06-14T08:44:16;6.60;;;2.50;;
41693;SDS011;27377;50.666;9.150;2023-06-14T08:46:42;4.22;;;2.42;;
41693;SDS011;27377;50.666;9.150;2023-06-14T08:49:08;4.05;;;2.47;;
41693;SDS011;27377;50.666;9.150;2023-06-14T08:51:36;5.72;;;2.45;;
41693;SDS011;27377;50.666;9.150;2023-06-14T08:54:03;6.45;;;2.42;;
41693;SDS011;27377;50.666;9.150;2023-06-14T08:56:29;5.18;;;2.40;;
41693;SDS011;27377;50.666;9.150;2023-06-14T08:58:57;5.47;;;2.37;;
41693;SDS011;27377;50.666;9.150;2023-06-14T09:01:28;5.93;;;2.37;;
41693;SDS011;27377;50.666;9.150;2023-06-14T09:03:59;5.82;;;2.45;;
41693;SDS011;27377;50.666;9.150;2023-06-14T09:06:28;5.00;;;2.40;;
41693;SDS011;27377;50.666;9.150;2023-06-14T09:08:55;3.70;;;2.17;;
41693;SDS011;27377;50.666;9.150;2023-06-14T09:11:23;4.18;;;2.20;;
41693;SDS011;27377;50.666;9.150;2023-06-14T09:13:51;5.10;;;2.17;;
41693;SDS011;27377;50.666;9.150;2023-06-14T09:16:16;5.77;;;2.10;;
41693;SDS011;27377;50.666;9.150;2023-06-14T09:18:46;3.60;;;2.20;;
41693;SDS011;27377;50.666;9.150;2023-06-14T09:21:18;5.63;;;2.13;;
41693;SDS011;27377;50.666;9.150;2023-06-14T09:23:44;5.40;;;2.20;;
41693;SDS011;27377;50.666;9.150;2023-06-14T09:26:11;3.78;;;2.20;;
41693;SDS011;27377;50.666;9.150;2023-06-14T09:28:45;4.70;;;2.38;;
41693;SDS011;27377;50.666;9.150;2023-06-14T09:31:16;6.07;;;2.10;;
41693;SDS011;27377;50.666;9.150;2023-06-14T09:33:46;3.77;;;2.00;;
41693;SDS011;27377;50.666;9.150;2023-06-14T09:38:51;3.80;;;2.30;;
41693;SDS011;27377;50.666;9.150;2023-06-14T09:41:30;3.53;;;1.98;;
41693;SDS011;27377;50.666;9.150;2023-06-14T09:44:03;3.55;;;1.90;;
41693;SDS011;27377;50.666;9.150;2023-06-14T09:46:30;5.10;;;2.10;;
41693;SDS011;27377;50.666;9.150;2023-06-14T09:49:00;3.70;;;2.03;;
41693;SDS011;27377;50.666;9.150;2023-06-14T09:51:26;5.70;;;2.10;;
41693;SDS011;27377;50.666;9.150;2023-06-14T09:53:53;3.90;;;1.83;;
41693;SDS011;27377;50.666;9.150;2023-06-14T09:56:26;6.80;;;2.10;;
41693;SDS011;27377;50.666;9.150;2023-06-14T09:58:58;5.00;;;2.00;;
41693;SDS011;27377;50.666;9.150;2023-06-14T10:01:30;3.97;;;2.17;;
41693;SDS011;27377;50.666;9.150;2023-06-14T10:04:06;3.97;;;2.13;;
41693;SDS011;27377;50.666;9.150;2023-06-14T10:06:43;4.37;;;2.30;;
41693;SDS011;27377;50.666;9.150;2023-06-14T10:09:13;2.85;;;1.90;;
41693;SDS011;27377;50.666;9.150;2023-06-14T10:11:40;4.77;;;2.17;;
41693;SDS011;27377;50.666;9.150;2023-06-14T10:14:09;4.35;;;2.00;;
41693;SDS011;27377;50.666;9.150;2023-06-14T10:16:45;3.45;;;2.20;;
41693;SDS011;27377;50.666;9.150;2023-06-14T10:24:35;3.53;;;1.83;;
41693;SDS011;27377;50.666;9.150;2023-06-14T10:27:06;3.83;;;1.98;;
41693;SDS011;27377;50.666;9.150;2023-06-14T10:29:35;2.85;;;1.90;;
41693;SDS011;27377;50.666;9.150;2023-06-14T10:32:26;4.07;;;2.42;;
41693;SDS011;27377;50.666;9.150;2023-06-14T10:35:00;4.68;;;2.28;;
41693;SDS011;27377;50.666;9.150;2023-06-14T10:37:29;5.70;;;2.35;;
41693;SDS011;27377;50.666;9.150;2023-06-14T10:39:55;5.33;;;2.50;;
41693;SDS011;27377;50.666;9.150;2023-06-14T10:42:21;5.83;;;2.43;;
41693;SDS011;27377;50.666;9.150;2023-06-14T10:44:56;5.07;;;2.20;;
41693;SDS011;27377;50.666;9.150;2023-06-14T10:49:53;3.78;;;2.10;;
41693;SDS011;27377;50.666;9.150;2023-06-14T10:52:24;4.68;;;2.35;;
41693;SDS011;27377;50.666;9.150;2023-06-14T10:54:58;4.13;;;2.38;;
41693;SDS011;27377;50.666;9.150;2023-06-14T10:57:37;3.88;;;2.20;;
41693;SDS011;27377;50.666;9.150;2023-06-14T11:00:04;4.55;;;2.22;;
41693;SDS011;27377;50.666;9.150;2023-06-14T11:05:25;4.78;;;2.30;;
41693;SDS011;27377;50.666;9.150;2023-06-14T11:10:44;4.38;;;2.10;;
41693;SDS011;27377;50.666;9.150;2023-06-14T11:13:12;3.97;;;2.13;;
41693;SDS011;27377;50.666;9.150;2023-06-14T11:15:44;3.63;;;2.00;;
41693;SDS011;27377;50.666;9.150;2023-06-14T11:18:17;5.97;;;2.10;;
41693;SDS011;27377;50.666;9.150;2023-06-14T11:20:45;3.70;;;1.98;;
41693;SDS011;27377;50.666;9.150;2023-06-14T11:23:12;4.20;;;2.00;;
41693;SDS011;27377;50.666;9.150;2023-06-14T11:25:37;4.67;;;2.20;;
41693;SDS011;27377;50.666;9.150;2023-06-14T11:28:03;4.97;;;2.30;;
41693;SDS011;27377;50.666;9.150;2023-06-14T11:30:28;3.67;;;2.27;;
41693;SDS011;27377;50.666;9.150;2023-06-14T11:32:55;5.25;;;2.20;;
41693;SDS011;27377;50.666;9.150;2023-06-14T11:35:23;4.13;;;2.20;;
41693;SDS011;27377;50.666;9.150;2023-06-14T11:37:52;4.32;;;2.17;;
41693;SDS011;27377;50.666;9.150;2023-06-14T11:40:25;6.13;;;2.25;;
41693;SDS011;27377;50.666;9.150;2023-06-14T11:42:58;4.03;;;2.13;;
41693;SDS011;27377;50.666;9.150;2023-06-14T11:45:25;3.80;;;2.33;;
41693;SDS011;27377;50.666;9.150;2023-06-14T11:47:51;4.30;;;2.15;;
41693;SDS011;27377;50.666;9.150;2023-06-14T11:50:19;6.20;;;2.10;;
41693;SDS011;27377;50.666;9.150;2023-06-14T11:52:45;5.23;;;2.40;;
41693;SDS011;27377;50.666;9.150;2023-06-14T11:55:33;6.15;;;2.35;;
41693;SDS011;27377;50.666;9.150;2023-06-14T11:58:04;3.33;;;1.90;;
41693;SDS011;27377;50.666;9.150;2023-06-14T12:00:30;4.60;;;2.10;;
41693;SDS011;27377;50.666;9.150;2023-06-14T12:02:56;6.07;;;2.27;;
41693;SDS011;27377;50.666;9.150;2023-06-14T12:05:22;4.20;;;2.13;;
41693;SDS011;27377;50.666;9.150;2023-06-14T12:07:49;4.03;;;2.10;;
41693;SDS011;27377;50.666;9.150;2023-06-14T12:10:15;3.25;;;2.10;;
41693;SDS011;27377;50.666;9.150;2023-06-14T12:12:41;4.93;;;2.30;;
41693;SDS011;27377;50.666;9.150;2023-06-14T12:15:07;3.60;;;2.20;;
41693;SDS011;27377;50.666;9.150;2023-06-14T12:17:36;4.63;;;1.97;;
41693;SDS011;27377;50.666;9.150;2023-06-14T12:20:10;3.85;;;2.08;;
41693;SDS011;27377;50.666;9.150;2023-06-14T12:22:51;3.45;;;2.00;;
41693;SDS011;27377;50.666;9.150;2023-06-14T12:25:30;3.97;;;1.98;;
41693;SDS011;27377;50.666;9.150;2023-06-14T12:28:04;4.82;;;2.20;;
41693;SDS011;27377;50.666;9.150;2023-06-14T12:30:34;4.60;;;1.90;;
41693;SDS011;27377;50.666;9.150;2023-06-14T12:33:01;4.45;;;2.15;;
41693;SDS011;27377;50.666;9.150;2023-06-14T12:35:30;3.28;;;2.08;;
41693;SDS011;27377;50.666;9.150;2023-06-14T12:37:56;3.55;;;1.98;;
41693;SDS011;27377;50.666;9.150;2023-06-14T12:40:22;4.03;;;2.00;;
41693;SDS011;27377;50.666;9.150;2023-06-14T12:42:47;4.37;;;2.17;;
41693;SDS011;27377;50.666;9.150;2023-06-14T12:45:13;5.30;;;1.90;;
41693;SDS011;27377;50.666;9.150;2023-06-14T12:47:39;3.27;;;1.90;;
41693;SDS011;27377;50.666;9.150;2023-06-14T12:50:05;3.80;;;2.07;;
41693;SDS011;27377;50.666;9.150;2023-06-14T12:52:31;4.63;;;2.17;;
41693;SDS011;27377;50.666;9.150;2023-06-14T12:55:01;5.32;;;2.10;;
41693;SDS011;27377;50.666;9.150;2023-06-14T12:57:30;4.07;;;2.28;;
41693;SDS011;27377;50.666;9.150;2023-06-14T12:59:55;6.37;;;2.30;;
41693;SDS011;27377;50.666;9.150;2023-06-14T13:02:21;4.43;;;2.37;;
41693;SDS011;27377;50.666;9.150;2023-06-14T13:04:50;3.22;;;2.00;;
41693;SDS011;27377;50.666;9.150;2023-06-14T13:07:16;4.95;;;2.10;;
41693;SDS011;27377;50.666;9.150;2023-06-14T13:09:42;7.10;;;3.23;;
41693;SDS011;27377;50.666;9.150;2023-06-14T13:12:09;6.32;;;3.10;;
41693;SDS011;27377;50.666;9.150;2023-06-14T13:14:36;3.90;;;2.50;;
41693;SDS011;27377;50.666;9.150;2023-06-14T13:17:02;4.70;;;2.33;;
41693;SDS011;27377;50.666;9.150;2023-06-14T13:19:28;4.97;;;2.58;;
41693;SDS011;27377;50.666;9.150;2023-06-14T13:21:53;3.87;;;2.10;;
41693;SDS011;27377;50.666;9.150;2023-06-14T13:24:19;5.83;;;2.17;;
41693;SDS011;27377;50.666;9.150;2023-06-14T13:26:44;3.37;;;2.03;;
41693;SDS011;27377;50.666;9.150;2023-06-14T13:29:10;4.13;;;2.10;;
41693;SDS011;27377;50.666;9.150;2023-06-14T13:31:36;4.75;;;2.20;;
41693;SDS011;27377;50.666;9.150;2023-06-14T13:34:01;3.55;;;1.80;;
41693;SDS011;27377;50.666;9.150;2023-06-14T13:36:27;4.43;;;1.98;;
41693;SDS011;27377;50.666;9.150;2023-06-14T13:38:52;4.37;;;1.90;;
41693;SDS011;27377;50.666;9.150;2023-06-14T13:41:19;2.97;;;1.80;;
41693;SDS011;27377;50.666;9.150;2023-06-14T13:43:45;3.83;;;2.10;;
41693;SDS011;27377;50.666;9.150;2023-06-14T13:46:11;3.22;;;2.20;;
41693;SDS011;27377;50.666;9.150;2023-06-14T13:48:36;4.15;;;2.08;;
41693;SDS011;27377;50.666;9.150;2023-06-14T13:51:02;3.80;;;2.17;;
41693;SDS011;27377;50.666;9.150;2023-06-14T13:53:29;3.42;;;2.20;;
41693;SDS011;27377;50.666;9.150;2023-06-14T13:55:54;4.05;;;1.98;;
41693;SDS011;27377;50.666;9.150;2023-06-14T13:58:20;4.38;;;2.10;;
41693;SDS011;27377;50.666;9.150;2023-06-14T14:00:46;3.85;;;2.10;;
41693;SDS011;27377;50.666;9.150;2023-06-14T14:03:11;3.88;;;1.80;;
41693;SDS011;27377;50.666;9.150;2023-06-14T14:05:37;4.10;;;2.15;;
41693;SDS011;27377;50.666;9.150;2023-06-14T14:08:03;4.67;;;2.10;;
41693;SDS011;27377;50.666;9.150;2023-06-14T14:10:29;4.25;;;2.20;;
41693;SDS011;27377;50.666;9.150;2023-06-14T14:12:54;3.17;;;1.90;;
41693;SDS011;27377;50.666;9.150;2023-06-14T14:15:20;2.80;;;1.90;;
41693;SDS011;27377;50.666;9.150;2023-06-14T14:17:45;4.53;;;2.30;;
41693;SDS011;27377;50.666;9.150;2023-06-14T14:20:12;3.15;;;1.90;;
41693;SDS011;27377;50.666;9.150;2023-06-14T14:22:40;4.05;;;2.10;;
41693;SDS011;27377;50.666;9.150;2023-06-14T14:25:09;4.82;;;1.90;;
41693;SDS011;27377;50.666;9.150;2023-06-14T14:27:34;4.72;;;2.17;;
41693;SDS011;27377;50.666;9.150;2023-06-14T14:30:00;4.07;;;2.10;;
41693;SDS011;27377;50.666;9.150;2023-06-14T14:32:26;4.32;;;2.25;;
41693;SDS011;27377;50.666;9.150;2023-06-14T14:34:51;4.93;;;2.00;;
41693;SDS011;27377;50.666;9.150;2023-06-14T14:37:17;4.60;;;2.20;;
41693;SDS011;27377;50.666;9.150;2023-06-14T14:39:44;3.70;;;2.40;;
41693;SDS011;27377;50.666;9.150;2023-06-14T14:42:10;4.75;;;2.28;;
41693;SDS011;27377;50.666;9.150;2023-06-14T14:44:37;3.35;;;2.00;;
41693;SDS011;27377;50.666;9.150;2023-06-14T14:47:03;3.60;;;2.00;;
41693;SDS011;27377;50.666;9.150;2023-06-14T14:49:30;3.75;;;1.80;;
41693;SDS011;27377;50.666;9.150;2023-06-14T14:51:56;4.35;;;2.00;;
41693;SDS011;27377;50.666;9.150;2023-06-14T14:54:22;3.77;;;1.97;;
41693;SDS011;27377;50.666;9.150;2023-06-14T14:56:48;3.80;;;1.92;;
41693;SDS011;27377;50.666;9.150;2023-06-14T14:59:14;3.97;;;2.10;;
41693;SDS011;27377;50.666;9.150;2023-06-14T15:01:39;4.27;;;2.10;;
41693;SDS011;27377;50.666;9.150;2023-06-14T15:04:05;3.30;;;1.90;;
41693;SDS011;27377;50.666;9.150;2023-06-14T15:06:30;5.70;;;2.08;;
41693;SDS011;27377;50.666;9.150;2023-06-14T15:08:56;3.00;;;2.00;;
41693;SDS011;27377;50.666;9.150;2023-06-14T15:11:22;4.30;;;2.30;;
41693;SDS011;27377;50.666;9.150;2023-06-14T15:13:48;3.30;;;2.00;;